This is the latest recevied weather packets stored in our database for station/object W7BTL. If no packets are shown the sender has not sent any weather packets the latest 1 day(s).
| Time | Temp. | Humidity | Pressure | Rain* | Wind** | Luminosity | Snow |
|---|---|---|---|---|---|---|---|
| 1778093424 | 31.67° C | 29% | 1017.8 hPa | 0 mm | - | 1015 W/m² | - |
| 1778092514 | 28.33° C | 34% | 1018.1 hPa | 0 mm | - | 1002 W/m² | - |
| 1778092211 | 30.56° C | 31% | 1018.3 hPa | 0 mm | - | 987 W/m² | - |
| 1778090393 | 28.89° C | 34% | 1018.2 hPa | 0 mm | - | 973 W/m² | - |
| 1778088272 | 27.22° C | 37% | 1018.5 hPa | 0 mm | - | 886 W/m² | - |
| 1778087666 | 26.11° C | 41% | 1018.3 hPa | 0 mm | - | 841 W/m² | - |
| 1778087364 | 26.67° C | 40% | 1018.3 hPa | 0 mm | - | 821 W/m² | - |
| 1778086457 | 27.22° C | 38% | 1018.4 hPa | 0 mm | - | 825 W/m² | - |
| 1778084635 | 23.33° C | 48% | 1018.4 hPa | 0 mm | - | 665 W/m² | - |
| 1778083727 | 23.89° C | 48% | 1018.4 hPa | 0 mm | - | 645 W/m² | - |
| 1778081388 | 22.22° C | 55% | 1018.5 hPa | 0 mm | - | 415 W/m² | - |
| 1778080783 | 20° C | 61% | 1018.4 hPa | 0 mm | - | 367 W/m² | - |
| 1778078965 | 16.67° C | 74% | 1018.6 hPa | 0 mm | - | 235 W/m² | - |
| 1778078661 | 16.11° C | 76% | 1018.4 hPa | 0 mm | - | 217 W/m² | - |
| 1778078056 | 15.56° C | 79% | 1018.4 hPa | 0 mm | - | 177 W/m² | - |
| 1778077150 | 14.44° C | 84% | 1018.6 hPa | 0 mm | - | 122 W/m² | - |
| 1778076546 | 13.33° C | 87% | 1018.2 hPa | 0 mm | - | 91 W/m² | - |
| 1778075636 | 12.22° C | 92% | 1018.2 hPa | 0 mm | - | 39 W/m² | - |
| 1778074726 | 11.11° C | 96% | 1018 hPa | 0 mm | - | 20 W/m² | - |
| 1778074119 | 10.56° C | 96% | 1018 hPa | 0 mm | - | 15 W/m² | - |
| 1778073816 | 10.56° C | 95% | 1018.1 hPa | 0 mm | - | 12 W/m² | - |
| 1778072908 | 10.56° C | 95% | 1017.8 hPa | 0 mm | - | 5 W/m² | - |
| 1778072302 | 10.56° C | 95% | 1017.8 hPa | 0 mm | - | 2 W/m² | - |
| 1778069883 | 10.56° C | 94% | 1017.2 hPa | 0 mm | - | 0 W/m² | - |
| 1778069277 | 10.56° C | 94% | 1017.4 hPa | 0 mm | - | 0 W/m² | - |
* Rain latest hour (hover to see other rain measurements)
** Current wind speed in m/s (hover to see current wind gust speed)